createdAt,value
2024-03-03T00:01:10.185Z,99975.81
2024-03-03T00:03:37.840Z,99972.78
2024-03-03T00:06:09.118Z,99967.72
2024-03-03T00:08:37.470Z,99971.81
2024-03-03T00:11:06.381Z,99969.47
2024-03-03T00:13:35.162Z,99970.28
2024-03-03T00:16:07.930Z,99964.13
2024-03-03T00:18:40.053Z,99959.44
2024-03-03T00:21:15.234Z,99964.56
2024-03-03T00:23:43.387Z,99967.59
2024-03-03T00:26:10.838Z,99964.06
2024-03-03T00:28:38.255Z,99959.03
2024-03-03T00:31:05.811Z,99960.44
2024-03-03T00:33:33.318Z,99957.31
2024-03-03T00:36:00.741Z,99955.38
2024-03-03T00:38:28.205Z,99954.69
2024-03-03T00:40:55.801Z,99956.00
2024-03-03T00:43:23.593Z,99952.91
2024-03-03T00:45:51.095Z,99960.22
2024-03-03T00:48:18.508Z,99952.97
2024-03-03T00:50:45.879Z,99951.19
2024-03-03T00:53:13.341Z,99948.41
2024-03-03T00:55:47.454Z,99946.38
2024-03-03T00:58:16.184Z,99952.53
2024-03-03T01:00:44.983Z,99944.31
2024-03-03T01:03:12.423Z,99942.69
2024-03-03T01:05:39.811Z,99941.16
2024-03-03T01:08:07.634Z,99945.00
2024-03-03T01:10:35.067Z,99944.78
2024-03-03T01:13:02.622Z,99943.09
2024-03-03T01:15:30.138Z,99942.78
2024-03-03T01:17:57.449Z,99948.56
2024-03-03T01:20:26.346Z,99947.72
2024-03-03T01:22:53.798Z,99941.38
2024-03-03T01:25:21.332Z,99943.44
2024-03-03T01:27:48.836Z,99950.03
2024-03-03T01:30:16.281Z,99946.75
2024-03-03T01:32:43.756Z,99952.34
2024-03-03T01:35:11.314Z,99951.66
2024-03-03T01:37:38.704Z,99952.72
2024-03-03T01:40:08.085Z,99956.81
2024-03-03T01:42:35.730Z,99953.41
2024-03-03T01:45:04.071Z,99951.50
2024-03-03T01:47:32.608Z,99948.28
2024-03-03T01:50:00.410Z,99953.56
2024-03-03T01:52:30.063Z,99942.16
2024-03-03T01:54:58.795Z,99951.91
2024-03-03T01:57:26.304Z,99943.38
2024-03-03T01:59:56.089Z,99945.56
2024-03-03T02:02:24.489Z,99940.34
2024-03-03T02:04:52.425Z,99937.59
2024-03-03T02:07:22.402Z,99937.03
2024-03-03T02:09:50.325Z,99931.53
2024-03-03T02:12:19.043Z,99934.09
2024-03-03T02:14:46.539Z,99929.72
2024-03-03T02:17:13.937Z,99935.91
2024-03-03T02:19:41.852Z,99939.50
2024-03-03T02:22:09.311Z,99926.50
2024-03-03T02:24:36.780Z,99929.56
2024-03-03T02:27:05.958Z,99923.19
2024-03-03T02:29:33.490Z,99922.03
2024-03-03T02:32:00.875Z,99913.00
2024-03-03T02:34:29.953Z,99919.25
2024-03-03T02:36:57.430Z,99920.50
2024-03-03T02:39:24.893Z,99923.06
2024-03-03T02:41:52.341Z,99917.94
2024-03-03T02:44:19.756Z,99923.50
2024-03-03T02:46:49.395Z,99916.91
2024-03-03T02:49:16.872Z,99913.38
2024-03-03T02:51:45.305Z,99915.53
2024-03-03T02:54:14.197Z,99915.78
2024-03-03T02:56:41.583Z,99918.81
2024-03-03T02:59:08.964Z,99913.75
2024-03-03T03:01:36.485Z,99916.63
2024-03-03T03:04:04.756Z,99913.66
2024-03-03T03:06:32.203Z,99922.94
2024-03-03T03:08:59.554Z,99919.41
2024-03-03T03:11:27.015Z,99919.72
2024-03-03T03:13:54.709Z,99926.53
2024-03-03T03:16:22.196Z,99919.06
2024-03-03T03:18:49.603Z,99915.56
2024-03-03T03:21:17.082Z,99915.22
2024-03-03T03:23:44.489Z,99910.97
2024-03-03T03:26:12.174Z,99907.41
2024-03-03T03:28:43.113Z,99903.63
2024-03-03T03:31:10.593Z,99904.84
2024-03-03T03:33:38.022Z,99898.72
2024-03-03T03:36:12.323Z,99896.38
2024-03-03T03:38:39.926Z,99896.66
2024-03-03T03:41:07.388Z,99896.66
2024-03-03T03:43:34.876Z,99895.94
2024-03-03T03:46:02.424Z,99892.34
2024-03-03T03:48:29.936Z,99899.13
2024-03-03T03:50:57.470Z,99905.56
2024-03-03T03:53:24.778Z,99901.25
2024-03-03T03:55:52.124Z,99898.72
2024-03-03T03:58:19.585Z,99899.44
2024-03-03T04:00:47.187Z,99903.31
2024-03-03T04:03:14.646Z,99899.78
2024-03-03T04:05:42.072Z,99904.53
2024-03-03T04:08:09.526Z,99897.53
2024-03-03T04:10:36.919Z,99901.44
2024-03-03T04:13:04.949Z,99893.66
2024-03-03T04:15:32.724Z,99898.13
2024-03-03T04:18:00.228Z,99899.25
2024-03-03T04:20:27.769Z,99895.59
2024-03-03T04:22:55.151Z,99900.75
2024-03-03T04:25:22.643Z,99897.56
2024-03-03T04:27:50.131Z,99895.78
2024-03-03T04:30:18.132Z,99893.44
2024-03-03T04:32:45.655Z,99899.06
2024-03-03T04:35:13.109Z,99891.63
2024-03-03T04:37:40.805Z,99895.78
2024-03-03T04:40:09.855Z,99881.63
2024-03-03T04:42:37.162Z,99884.34
2024-03-03T04:45:07.894Z,99889.13
2024-03-03T04:47:36.152Z,99885.34
2024-03-03T04:50:03.884Z,99884.16
2024-03-03T04:52:31.313Z,99886.97
2024-03-03T04:54:58.688Z,99885.72
2024-03-03T04:57:26.123Z,99892.81
2024-03-03T04:59:53.685Z,99889.59
2024-03-03T05:02:21.125Z,99880.75
2024-03-03T05:04:48.544Z,99886.50
2024-03-03T05:07:17.221Z,99879.63
2024-03-03T05:09:44.743Z,99883.69
2024-03-03T05:12:12.173Z,99880.25
2024-03-03T05:14:39.495Z,99882.41
2024-03-03T05:17:06.816Z,99877.56
2024-03-03T05:19:34.205Z,99888.63
2024-03-03T05:22:01.623Z,99890.56
2024-03-03T05:24:29.140Z,99894.16
2024-03-03T05:26:56.455Z,99891.22
2024-03-03T05:29:25.370Z,99892.63
2024-03-03T05:31:52.769Z,99888.84
2024-03-03T05:34:20.245Z,99894.81
2024-03-03T05:36:47.974Z,99890.72
2024-03-03T05:39:19.746Z,99898.47
2024-03-03T05:41:47.088Z,99899.69
2024-03-03T05:44:14.784Z,99899.59
2024-03-03T05:46:42.179Z,99893.25
2024-03-03T05:49:09.705Z,99898.16
2024-03-03T05:51:37.879Z,99906.03
2024-03-03T05:54:06.159Z,99908.59
2024-03-03T05:56:36.411Z,99904.31
2024-03-03T05:59:05.485Z,99908.22
2024-03-03T06:01:33.323Z,99910.28
2024-03-03T06:04:01.012Z,99918.41
2024-03-03T06:06:28.835Z,99915.19
2024-03-03T06:08:57.310Z,99911.28
2024-03-03T06:11:24.783Z,99916.75
2024-03-03T06:13:53.267Z,99917.13
2024-03-03T06:16:20.645Z,99918.63
2024-03-03T06:18:48.325Z,99919.00
2024-03-03T06:21:16.916Z,99918.31
2024-03-03T06:23:44.230Z,99920.38
2024-03-03T06:26:16.422Z,99924.00
2024-03-03T06:28:46.386Z,99929.88
2024-03-03T06:31:14.452Z,99930.19
2024-03-03T06:33:41.904Z,99932.09
2024-03-03T06:36:18.523Z,99930.72
2024-03-03T06:38:46.536Z,99928.47
2024-03-03T06:41:15.990Z,99933.88
2024-03-03T06:43:44.667Z,99933.44
2024-03-03T06:46:13.158Z,99942.53
2024-03-03T06:48:41.272Z,99937.31
2024-03-03T06:51:09.129Z,99933.16
2024-03-03T06:53:40.193Z,99927.16
2024-03-03T06:56:16.654Z,99931.88
2024-03-03T06:58:47.646Z,99932.34
2024-03-03T07:01:16.655Z,99920.16
2024-03-03T07:03:56.443Z,99927.75
2024-03-03T07:06:24.190Z,99931.91
2024-03-03T07:08:51.673Z,99925.91
2024-03-03T07:11:19.182Z,99929.69
2024-03-03T07:13:46.692Z,99928.47
2024-03-03T07:16:14.017Z,99925.94
2024-03-03T07:18:41.630Z,99922.69
2024-03-03T07:21:09.330Z,99930.81
2024-03-03T07:23:36.817Z,99932.88
2024-03-03T07:26:04.295Z,99938.25
2024-03-03T07:28:31.690Z,99933.66
2024-03-03T07:30:59.064Z,99942.47
2024-03-03T07:33:26.426Z,99941.94
2024-03-03T07:35:53.791Z,99940.47
2024-03-03T07:38:21.287Z,99937.19
2024-03-03T07:40:48.680Z,99947.09
2024-03-03T07:43:16.446Z,99936.47
2024-03-03T07:45:43.930Z,99935.66
2024-03-03T07:48:11.404Z,99943.94
2024-03-03T07:50:38.848Z,99938.34
2024-03-03T07:53:06.982Z,99941.91
2024-03-03T07:55:34.422Z,99944.75
2024-03-03T07:58:01.890Z,99952.97
2024-03-03T08:00:35.144Z,99945.47
2024-03-03T08:03:07.308Z,99942.88
2024-03-03T08:05:35.392Z,99942.53
2024-03-03T08:08:05.858Z,99944.91
2024-03-03T08:10:34.114Z,99941.75
2024-03-03T08:13:01.989Z,99939.97
2024-03-03T08:15:29.872Z,99951.53
2024-03-03T08:18:01.639Z,99943.03
2024-03-03T08:20:29.971Z,99937.91
2024-03-03T08:22:57.491Z,99941.06
2024-03-03T08:25:26.081Z,99942.56
2024-03-03T08:27:58.362Z,99942.75
2024-03-03T08:30:26.287Z,99934.63
2024-03-03T08:32:54.681Z,99931.38
2024-03-03T08:35:22.124Z,99935.28
2024-03-03T08:37:49.527Z,99938.59
2024-03-03T08:40:20.543Z,99926.22
2024-03-03T08:42:48.012Z,99925.72
2024-03-03T08:45:15.474Z,99924.84
2024-03-03T08:47:43.558Z,99920.94
2024-03-03T08:50:11.775Z,99923.03
2024-03-03T08:52:40.497Z,99915.50
2024-03-03T08:55:08.342Z,99909.00
2024-03-03T08:57:35.789Z,99906.00
2024-03-03T09:00:03.817Z,99906.84
2024-03-03T09:02:31.223Z,99916.53
2024-03-03T09:05:08.869Z,99908.31
2024-03-03T09:07:37.686Z,99906.72
2024-03-03T09:10:06.434Z,99909.50
2024-03-03T09:12:34.337Z,99906.41
2024-03-03T09:15:02.030Z,99901.13
2024-03-03T09:17:29.476Z,99910.66
2024-03-03T09:19:56.848Z,99908.00
2024-03-03T09:22:25.974Z,99902.25
2024-03-03T09:24:53.753Z,99898.06
2024-03-03T09:27:25.443Z,99903.09
2024-03-03T09:29:54.002Z,99899.47
2024-03-03T09:32:21.791Z,99892.88
2024-03-03T09:34:49.103Z,99890.03
2024-03-03T09:37:16.607Z,99898.31
2024-03-03T09:39:44.574Z,99902.75
2024-03-03T09:42:12.500Z,99896.94
2024-03-03T09:44:45.389Z,99892.28
2024-03-03T09:47:14.653Z,99888.44
2024-03-03T09:49:46.713Z,99888.94
2024-03-03T09:52:15.439Z,99904.06
2024-03-03T09:54:43.837Z,99892.25
2024-03-03T09:57:15.257Z,99886.56
2024-03-03T09:59:43.090Z,99880.91
2024-03-03T10:02:19.130Z,99884.03
2024-03-03T10:04:49.879Z,99874.13
2024-03-03T10:07:24.632Z,99875.56
2024-03-03T10:10:05.273Z,99889.28
2024-03-03T10:12:35.130Z,99873.22
2024-03-03T10:15:06.418Z,99881.56
2024-03-03T10:17:33.886Z,99877.50
2024-03-03T10:20:10.133Z,99874.69
2024-03-03T10:22:39.443Z,99876.97
2024-03-03T10:25:19.534Z,99874.09
2024-03-03T10:27:49.860Z,99866.47
2024-03-03T10:30:23.802Z,99881.84
2024-03-03T10:32:51.889Z,99872.59
2024-03-03T10:35:20.330Z,99873.75
2024-03-03T10:38:03.332Z,99860.28
2024-03-03T10:40:32.995Z,99862.97
2024-03-03T10:43:00.604Z,99857.63
2024-03-03T10:45:28.097Z,99853.94
2024-03-03T10:47:55.768Z,99853.16
2024-03-03T10:50:24.623Z,99858.94
2024-03-03T10:52:54.418Z,99853.44
2024-03-03T10:55:22.236Z,99852.91
2024-03-03T10:57:52.084Z,99851.88
2024-03-03T11:00:26.180Z,99852.41
2024-03-03T11:02:56.223Z,99861.28
2024-03-03T11:05:25.941Z,99856.56
2024-03-03T11:07:54.487Z,99864.00
2024-03-03T11:10:22.146Z,99862.56
2024-03-03T11:12:52.832Z,99861.00
2024-03-03T11:15:23.036Z,99852.88
2024-03-03T11:18:01.442Z,99855.19
2024-03-03T11:20:40.725Z,99860.28
2024-03-03T11:23:37.047Z,99846.22
2024-03-03T11:26:25.036Z,99847.03
2024-03-03T11:28:59.355Z,99849.47
2024-03-03T11:31:28.654Z,99847.31
2024-03-03T11:33:57.673Z,99841.34
2024-03-03T11:36:26.116Z,99843.63
2024-03-03T11:38:57.155Z,99842.56
2024-03-03T11:41:24.729Z,99829.38
2024-03-03T11:43:53.191Z,99819.66
2024-03-03T11:46:59.682Z,99826.59
2024-03-03T11:49:27.121Z,99823.03
2024-03-03T11:51:54.706Z,99818.28
2024-03-03T11:54:41.124Z,99818.41
2024-03-03T11:57:12.737Z,99811.97
2024-03-03T11:59:47.651Z,99809.94
2024-03-03T12:02:18.620Z,99804.88
2024-03-03T12:04:47.879Z,99801.97
2024-03-03T12:07:24.361Z,99794.69
2024-03-03T12:09:55.602Z,99797.47
2024-03-03T12:12:24.190Z,99789.41
2024-03-03T12:14:52.996Z,99790.22
2024-03-03T12:17:20.404Z,99788.69
2024-03-03T12:19:48.321Z,99783.66
2024-03-03T12:22:15.872Z,99781.75
2024-03-03T12:24:45.014Z,99779.03
2024-03-03T12:27:13.182Z,99788.66
2024-03-03T12:30:04.441Z,99788.66
2024-03-03T12:32:31.903Z,99787.75
2024-03-03T12:34:59.211Z,99787.50
2024-03-03T12:37:28.335Z,99784.47
2024-03-03T12:39:58.417Z,99787.34
2024-03-03T12:42:26.453Z,99785.47
2024-03-03T12:44:56.303Z,99789.22
2024-03-03T12:47:23.914Z,99787.09
2024-03-03T12:49:51.781Z,99790.97
2024-03-03T12:52:19.569Z,99791.13
2024-03-03T12:54:48.836Z,99790.13
2024-03-03T12:57:16.749Z,99796.28
2024-03-03T12:59:44.231Z,99796.09
2024-03-03T13:02:17.749Z,99798.16
2024-03-03T13:04:45.221Z,99788.09
2024-03-03T13:07:12.673Z,99785.22
2024-03-03T13:09:41.242Z,99789.97
2024-03-03T13:12:08.993Z,99788.94
2024-03-03T13:14:36.894Z,99776.97
2024-03-03T13:17:09.309Z,99779.56
2024-03-03T13:19:53.815Z,99783.31
2024-03-03T13:22:23.567Z,99775.25
2024-03-03T13:25:00.765Z,99780.94
2024-03-03T13:27:34.615Z,99779.91
2024-03-03T13:30:08.708Z,99768.59
2024-03-03T13:32:36.226Z,99768.88
2024-03-03T13:35:04.060Z,99779.19
2024-03-03T13:37:31.622Z,99776.19
2024-03-03T13:39:59.607Z,99774.13
2024-03-03T13:42:27.444Z,99769.59
2024-03-03T13:44:54.893Z,99775.28
2024-03-03T13:47:22.425Z,99781.38
2024-03-03T13:49:50.521Z,99775.19
2024-03-03T13:52:18.068Z,99785.81
2024-03-03T13:54:45.635Z,99782.81
2024-03-03T13:57:13.237Z,99786.31
2024-03-03T13:59:41.041Z,99782.31
2024-03-03T14:02:08.438Z,99790.06
2024-03-03T14:04:36.520Z,99788.22
2024-03-03T14:07:04.441Z,99790.66
2024-03-03T14:09:32.184Z,99795.53
2024-03-03T14:11:59.931Z,99796.41
2024-03-03T14:14:27.360Z,99795.59
2024-03-03T14:16:54.842Z,99796.16
2024-03-03T14:19:22.330Z,99808.00
2024-03-03T14:21:51.666Z,99800.31
2024-03-03T14:24:20.171Z,99797.59
2024-03-03T14:26:47.694Z,99806.09
2024-03-03T14:29:15.145Z,99801.50
2024-03-03T14:31:42.615Z,99804.69
2024-03-03T14:34:10.045Z,99807.31
2024-03-03T14:36:38.882Z,99817.56
2024-03-03T14:39:07.442Z,99813.03
2024-03-03T14:41:34.983Z,99817.28
2024-03-03T14:44:02.470Z,99824.63
2024-03-03T14:46:29.951Z,99812.25
2024-03-03T14:48:57.440Z,99820.34
2024-03-03T14:51:25.282Z,99821.59
2024-03-03T14:53:52.752Z,99825.28
2024-03-03T14:56:21.622Z,99818.41
2024-03-03T14:58:49.218Z,99828.31
2024-03-03T15:01:16.750Z,99822.84
2024-03-03T15:03:44.132Z,99818.22
2024-03-03T15:06:12.971Z,99821.84
2024-03-03T15:08:40.588Z,99814.13
2024-03-03T15:11:08.080Z,99815.28
2024-03-03T15:13:35.548Z,99812.75
2024-03-03T15:16:04.873Z,99817.47
2024-03-03T15:18:32.453Z,99815.56
2024-03-03T15:20:59.939Z,99815.00
2024-03-03T15:23:27.381Z,99805.16
2024-03-03T15:25:55.305Z,99805.50
2024-03-03T15:28:23.856Z,99812.03
2024-03-03T15:30:51.334Z,99815.22
2024-03-03T15:33:20.773Z,99812.38
2024-03-03T15:35:49.683Z,99803.06
2024-03-03T15:38:17.200Z,99808.31
2024-03-03T15:40:44.725Z,99801.50
2024-03-03T15:43:12.636Z,99813.91
2024-03-03T15:45:41.167Z,99802.03
2024-03-03T15:48:08.855Z,99808.34
2024-03-03T15:50:38.483Z,99809.59
2024-03-03T15:53:06.312Z,99803.69
2024-03-03T15:55:35.378Z,99803.91
2024-03-03T15:58:04.832Z,99804.28
2024-03-03T16:00:32.154Z,99808.25
2024-03-03T16:03:01.558Z,99813.28
2024-03-03T16:05:30.513Z,99820.81
2024-03-03T16:07:58.191Z,99817.44
2024-03-03T16:10:25.641Z,99808.84
2024-03-03T16:12:53.164Z,99814.13
2024-03-03T16:15:21.919Z,99816.13
2024-03-03T16:17:49.488Z,99818.13
2024-03-03T16:20:18.439Z,99827.72
2024-03-03T16:22:45.847Z,99826.72
2024-03-03T16:25:13.262Z,99822.25
2024-03-03T16:27:40.712Z,99812.75
2024-03-03T16:30:09.307Z,99811.84
2024-03-03T16:32:37.325Z,99819.56
2024-03-03T16:35:06.469Z,99811.81
2024-03-03T16:37:34.084Z,99820.00
2024-03-03T16:40:01.603Z,99820.19
2024-03-03T16:42:29.461Z,99818.84
2024-03-03T16:45:10.198Z,99813.97
2024-03-03T16:47:38.009Z,99820.00
2024-03-03T16:50:06.301Z,99819.06
2024-03-03T16:52:34.971Z,99821.06
2024-03-03T16:55:02.619Z,99822.19
2024-03-03T16:57:30.347Z,99823.84
2024-03-03T16:59:57.718Z,99824.19
2024-03-03T17:02:26.044Z,99828.34
2024-03-03T17:04:53.593Z,99832.94
2024-03-03T17:07:21.627Z,99829.84
2024-03-03T17:09:50.012Z,99829.69
2024-03-03T17:12:18.485Z,99829.31
2024-03-03T17:14:45.834Z,99835.22
2024-03-03T17:17:13.362Z,99840.50
2024-03-03T17:19:40.752Z,99834.41
2024-03-03T17:22:09.910Z,99840.88
2024-03-03T17:24:37.349Z,99847.28
2024-03-03T17:27:05.471Z,99846.78
2024-03-03T17:29:33.857Z,99851.91
2024-03-03T17:32:01.382Z,99851.72
2024-03-03T17:34:32.010Z,99846.16
2024-03-03T17:36:59.580Z,99847.78
2024-03-03T17:39:27.038Z,99852.06
2024-03-03T17:41:55.333Z,99856.16
2024-03-03T17:44:23.825Z,99854.34
2024-03-03T17:46:51.452Z,99851.25
2024-03-03T17:49:18.838Z,99850.56
2024-03-03T17:51:46.489Z,99855.69
2024-03-03T17:54:16.033Z,99853.91
2024-03-03T17:56:45.255Z,99854.53
2024-03-03T17:59:19.887Z,99853.72
2024-03-03T18:01:48.284Z,99854.84
2024-03-03T18:04:16.930Z,99856.47
2024-03-03T18:06:44.829Z,99861.75
2024-03-03T18:09:13.953Z,99854.38
2024-03-03T18:11:41.461Z,99858.97
2024-03-03T18:14:09.945Z,99860.59
2024-03-03T18:16:37.509Z,99867.03
2024-03-03T18:19:05.428Z,99858.63
2024-03-03T18:21:32.918Z,99859.63
2024-03-03T18:24:00.389Z,99858.78
2024-03-03T18:26:27.839Z,99865.06
2024-03-03T18:28:55.776Z,99859.94
2024-03-03T18:31:23.633Z,99851.91
2024-03-03T18:33:52.277Z,99862.59
2024-03-03T18:36:21.115Z,99861.94
2024-03-03T18:38:48.634Z,99863.25
2024-03-03T18:41:18.215Z,99858.16
2024-03-03T18:43:45.644Z,99863.72
2024-03-03T18:46:19.387Z,99861.28
2024-03-03T18:48:47.645Z,99859.81
2024-03-03T18:51:15.931Z,99865.19
2024-03-03T18:53:43.355Z,99859.97
2024-03-03T18:56:10.906Z,99861.94
2024-03-03T18:58:38.915Z,99855.69
2024-03-03T19:01:06.481Z,99868.66
2024-03-03T19:03:35.202Z,99874.59
2024-03-03T19:06:02.577Z,99879.97
2024-03-03T19:08:29.878Z,99874.78
2024-03-03T19:10:57.770Z,99877.41
2024-03-03T19:13:26.794Z,99865.56
2024-03-03T19:15:54.548Z,99873.81
2024-03-03T19:18:21.987Z,99872.06
2024-03-03T19:20:49.814Z,99870.47
2024-03-03T19:23:18.525Z,99879.03
2024-03-03T19:25:46.359Z,99876.09
2024-03-03T19:28:15.140Z,99874.22
2024-03-03T19:30:44.241Z,99878.38
2024-03-03T19:33:13.787Z,99874.63
2024-03-03T19:35:43.033Z,99873.13
2024-03-03T19:38:10.312Z,99872.47
2024-03-03T19:40:37.726Z,99878.72
2024-03-03T19:43:05.322Z,99872.47
2024-03-03T19:45:32.779Z,99882.00
2024-03-03T19:48:02.783Z,99873.44
2024-03-03T19:50:30.163Z,99876.25
2024-03-03T19:52:57.476Z,99876.09
2024-03-03T19:55:26.061Z,99879.38
2024-03-03T19:57:54.062Z,99873.28
2024-03-03T20:00:22.777Z,99870.66
2024-03-03T20:02:50.203Z,99874.78
2024-03-03T20:05:17.949Z,99872.28
2024-03-03T20:07:45.423Z,99874.13
2024-03-03T20:10:13.367Z,99874.03
2024-03-03T20:12:41.126Z,99869.47
2024-03-03T20:15:13.540Z,99883.63
2024-03-03T20:17:41.157Z,99873.13
2024-03-03T20:20:13.144Z,99873.13
2024-03-03T20:22:41.155Z,99873.31
2024-03-03T20:25:10.444Z,99877.06
2024-03-03T20:27:38.652Z,99872.44
2024-03-03T20:30:07.608Z,99873.31
2024-03-03T20:32:35.388Z,99876.56
2024-03-03T20:35:04.015Z,99876.88
2024-03-03T20:37:32.218Z,99876.41
2024-03-03T20:39:59.657Z,99882.97
2024-03-03T20:42:27.310Z,99885.78
2024-03-03T20:44:54.697Z,99881.47
2024-03-03T20:47:22.110Z,99886.50
2024-03-03T20:49:52.138Z,99887.16
2024-03-03T20:52:19.842Z,99881.31
2024-03-03T20:54:47.769Z,99892.66
2024-03-03T20:57:15.385Z,99891.03
2024-03-03T20:59:42.806Z,99891.63
2024-03-03T21:02:13.194Z,99890.50
2024-03-03T21:04:44.162Z,99895.31
2024-03-03T21:07:17.276Z,99898.47
2024-03-03T21:09:44.822Z,99890.38
2024-03-03T21:12:14.383Z,99896.91
2024-03-03T21:14:47.483Z,99895.94
2024-03-03T21:17:16.079Z,99903.81
2024-03-03T21:19:44.674Z,99891.19
2024-03-03T21:22:15.028Z,99897.19
2024-03-03T21:24:45.258Z,99899.41
2024-03-03T21:27:14.633Z,99892.63
2024-03-03T21:29:45.515Z,99896.31
2024-03-03T21:32:13.380Z,99896.53
2024-03-03T21:34:42.432Z,99900.00
2024-03-03T21:37:15.196Z,99906.59
2024-03-03T21:39:44.547Z,99894.09
2024-03-03T21:42:11.993Z,99893.09
2024-03-03T21:44:45.570Z,99896.06
2024-03-03T21:47:13.611Z,99902.28
2024-03-03T21:49:41.608Z,99896.13
2024-03-03T21:52:11.211Z,99898.75
2024-03-03T21:54:40.108Z,99909.91
2024-03-03T21:57:13.478Z,99907.22
2024-03-03T21:59:46.027Z,99913.22
2024-03-03T22:02:13.531Z,99906.31
2024-03-03T22:04:43.383Z,99909.06
2024-03-03T22:07:12.642Z,99910.78
2024-03-03T22:09:46.594Z,99907.19
2024-03-03T22:12:16.148Z,99910.41
2024-03-03T22:14:43.982Z,99917.84
2024-03-03T22:17:13.725Z,99916.44
2024-03-03T22:19:44.835Z,99919.09
2024-03-03T22:22:14.622Z,99915.56
2024-03-03T22:27:24.716Z,99921.16
2024-03-03T22:29:52.136Z,99922.41
2024-03-03T22:32:22.340Z,99921.59
2024-03-03T22:34:51.549Z,99928.25
2024-03-03T22:37:19.197Z,99930.00
2024-03-03T22:39:47.137Z,99916.75
2024-03-03T22:42:17.262Z,99922.63
2024-03-03T22:44:45.075Z,99924.31
2024-03-03T22:47:17.768Z,99921.19
2024-03-03T22:49:45.483Z,99921.44
2024-03-03T22:52:20.345Z,99922.63
2024-03-03T22:54:47.893Z,99920.75
2024-03-03T22:57:15.476Z,99920.41
2024-03-03T22:59:54.498Z,99923.31
2024-03-03T23:02:23.843Z,99915.41
2024-03-03T23:04:55.623Z,99921.00
2024-03-03T23:07:24.854Z,99919.66
2024-03-03T23:09:53.685Z,99919.78
2024-03-03T23:12:22.876Z,99927.31
2024-03-03T23:14:51.546Z,99922.66
2024-03-03T23:17:19.553Z,99921.53
2024-03-03T23:19:47.877Z,99925.47
2024-03-03T23:22:17.001Z,99921.34
2024-03-03T23:24:47.305Z,99927.38
2024-03-03T23:27:17.359Z,99926.28
2024-03-03T23:29:45.712Z,99925.28
2024-03-03T23:32:13.075Z,99931.50
2024-03-03T23:34:42.504Z,99929.41
2024-03-03T23:37:11.877Z,99929.19
2024-03-03T23:39:41.798Z,99936.91
2024-03-03T23:42:12.544Z,99934.28
2024-03-03T23:44:40.486Z,99931.75
2024-03-03T23:47:10.373Z,99935.06
2024-03-03T23:49:38.106Z,99931.69
2024-03-03T23:52:08.564Z,99938.78
2024-03-03T23:54:37.788Z,99932.88
2024-03-03T23:57:08.202Z,99937.88
2024-03-03T23:59:35.807Z,99934.00
